sensor_id;sensor_type;location;lat;lon;timestamp;temperature;humidity
45491;DHT22;31237;45.586;13.782;2022-07-29T00:00:46;23.50;66.70
45491;DHT22;31237;45.586;13.782;2022-07-29T00:03:12;23.40;66.70
45491;DHT22;31237;45.586;13.782;2022-07-29T00:05:39;23.40;66.80
45491;DHT22;31237;45.586;13.782;2022-07-29T00:08:06;23.40;66.80
45491;DHT22;31237;45.586;13.782;2022-07-29T00:10:32;23.40;66.90
45491;DHT22;31237;45.586;13.782;2022-07-29T00:12:58;23.30;66.90
45491;DHT22;31237;45.586;13.782;2022-07-29T00:15:24;23.30;66.90
45491;DHT22;31237;45.586;13.782;2022-07-29T00:17:49;23.30;66.90
45491;DHT22;31237;45.586;13.782;2022-07-29T00:20:15;23.30;67.00
45491;DHT22;31237;45.586;13.782;2022-07-29T00:22:41;23.30;67.00
45491;DHT22;31237;45.586;13.782;2022-07-29T00:25:08;23.30;67.00
45491;DHT22;31237;45.586;13.782;2022-07-29T00:27:35;23.30;66.90
45491;DHT22;31237;45.586;13.782;2022-07-29T00:30:00;23.30;66.90
45491;DHT22;31237;45.586;13.782;2022-07-29T00:32:26;23.20;66.80
45491;DHT22;31237;45.586;13.782;2022-07-29T00:34:52;23.20;66.90
45491;DHT22;31237;45.586;13.782;2022-07-29T00:37:36;23.20;66.80
45491;DHT22;31237;45.586;13.782;2022-07-29T00:40:02;23.20;66.80
45491;DHT22;31237;45.586;13.782;2022-07-29T00:42:28;23.20;66.80
45491;DHT22;31237;45.586;13.782;2022-07-29T00:44:54;23.20;66.70
45491;DHT22;31237;45.586;13.782;2022-07-29T00:47:20;23.20;66.70
45491;DHT22;31237;45.586;13.782;2022-07-29T00:49:45;23.20;66.60
45491;DHT22;31237;45.586;13.782;2022-07-29T00:52:13;23.20;66.60
45491;DHT22;31237;45.586;13.782;2022-07-29T00:54:40;23.20;67.10
45491;DHT22;31237;45.586;13.782;2022-07-29T00:57:08;23.20;66.50
45491;DHT22;31237;45.586;13.782;2022-07-29T00:59:34;23.20;66.50
45491;DHT22;31237;45.586;13.782;2022-07-29T01:02:00;23.20;66.50
45491;DHT22;31237;45.586;13.782;2022-07-29T01:04:26;23.20;66.50
45491;DHT22;31237;45.586;13.782;2022-07-29T01:06:53;23.20;66.50
45491;DHT22;31237;45.586;13.782;2022-07-29T01:09:20;23.20;66.50
45491;DHT22;31237;45.586;13.782;2022-07-29T01:11:46;23.20;66.50
45491;DHT22;31237;45.586;13.782;2022-07-29T01:14:14;23.20;66.40
45491;DHT22;31237;45.586;13.782;2022-07-29T01:16:58;23.10;66.40
45491;DHT22;31237;45.586;13.782;2022-07-29T01:30:10;23.10;66.30
45491;DHT22;31237;45.586;13.782;2022-07-29T01:32:37;23.10;66.20
45491;DHT22;31237;45.586;13.782;2022-07-29T01:35:15;23.10;66.80
45491;DHT22;31237;45.586;13.782;2022-07-29T01:40:34;23.20;66.10
45491;DHT22;31237;45.586;13.782;2022-07-29T01:43:09;23.10;66.00
45491;DHT22;31237;45.586;13.782;2022-07-29T01:45:47;23.10;66.00
45491;DHT22;31237;45.586;13.782;2022-07-29T01:48:18;23.10;66.00
45491;DHT22;31237;45.586;13.782;2022-07-29T01:51:16;23.10;66.00
45491;DHT22;31237;45.586;13.782;2022-07-29T01:53:54;23.10;65.90
45491;DHT22;31237;45.586;13.782;2022-07-29T01:56:22;23.10;65.90
45491;DHT22;31237;45.586;13.782;2022-07-29T01:58:49;23.10;65.90
45491;DHT22;31237;45.586;13.782;2022-07-29T02:01:17;23.20;65.90
45491;DHT22;31237;45.586;13.782;2022-07-29T02:03:45;23.20;65.90
45491;DHT22;31237;45.586;13.782;2022-07-29T02:06:12;23.10;65.80
45491;DHT22;31237;45.586;13.782;2022-07-29T02:08:39;23.10;65.80
45491;DHT22;31237;45.586;13.782;2022-07-29T02:11:07;23.10;65.80
45491;DHT22;31237;45.586;13.782;2022-07-29T02:13:35;23.10;65.80
45491;DHT22;31237;45.586;13.782;2022-07-29T02:16:05;23.10;65.80
45491;DHT22;31237;45.586;13.782;2022-07-29T02:18:32;23.10;65.80
45491;DHT22;31237;45.586;13.782;2022-07-29T02:20:59;23.10;65.90
45491;DHT22;31237;45.586;13.782;2022-07-29T02:23:26;23.10;66.50
45491;DHT22;31237;45.586;13.782;2022-07-29T02:25:56;23.10;65.90
45491;DHT22;31237;45.586;13.782;2022-07-29T02:28:25;23.10;65.90
45491;DHT22;31237;45.586;13.782;2022-07-29T02:30:53;23.10;65.90
45491;DHT22;31237;45.586;13.782;2022-07-29T02:33:20;23.10;65.90
45491;DHT22;31237;45.586;13.782;2022-07-29T02:35:47;23.00;65.80
45491;DHT22;31237;45.586;13.782;2022-07-29T02:38:17;23.00;65.80
45491;DHT22;31237;45.586;13.782;2022-07-29T02:41:05;23.00;65.80
45491;DHT22;31237;45.586;13.782;2022-07-29T02:43:34;23.00;65.80
45491;DHT22;31237;45.586;13.782;2022-07-29T02:46:04;23.00;65.70
45491;DHT22;31237;45.586;13.782;2022-07-29T02:48:47;23.00;65.70
45491;DHT22;31237;45.586;13.782;2022-07-29T02:51:19;23.00;65.60
45491;DHT22;31237;45.586;13.782;2022-07-29T02:53:49;23.00;65.60
45491;DHT22;31237;45.586;13.782;2022-07-29T02:56:17;23.00;65.60
45491;DHT22;31237;45.586;13.782;2022-07-29T02:58:58;23.00;65.60
45491;DHT22;31237;45.586;13.782;2022-07-29T03:01:25;23.00;65.50
45491;DHT22;31237;45.586;13.782;2022-07-29T03:03:54;23.00;65.50
45491;DHT22;31237;45.586;13.782;2022-07-29T03:06:23;23.00;65.40
45491;DHT22;31237;45.586;13.782;2022-07-29T03:08:50;23.00;65.40
45491;DHT22;31237;45.586;13.782;2022-07-29T03:11:17;23.00;65.30
45491;DHT22;31237;45.586;13.782;2022-07-29T03:13:43;23.00;65.30
45491;DHT22;31237;45.586;13.782;2022-07-29T03:16:10;23.00;65.30
45491;DHT22;31237;45.586;13.782;2022-07-29T03:18:36;23.00;65.30
45491;DHT22;31237;45.586;13.782;2022-07-29T03:21:03;23.00;65.30
45491;DHT22;31237;45.586;13.782;2022-07-29T03:23:29;23.00;65.20
45491;DHT22;31237;45.586;13.782;2022-07-29T03:25:55;23.00;65.20
45491;DHT22;31237;45.586;13.782;2022-07-29T03:28:21;23.00;65.20
45491;DHT22;31237;45.586;13.782;2022-07-29T03:30:47;22.90;65.10
45491;DHT22;31237;45.586;13.782;2022-07-29T03:33:13;22.90;65.10
45491;DHT22;31237;45.586;13.782;2022-07-29T03:35:39;22.90;65.80
45491;DHT22;31237;45.586;13.782;2022-07-29T03:38:08;22.90;65.10
45491;DHT22;31237;45.586;13.782;2022-07-29T03:40:49;22.90;65.20
45491;DHT22;31237;45.586;13.782;2022-07-29T03:43:17;22.90;65.10
45491;DHT22;31237;45.586;13.782;2022-07-29T03:45:47;22.90;65.10
45491;DHT22;31237;45.586;13.782;2022-07-29T03:48:16;22.90;65.10
45491;DHT22;31237;45.586;13.782;2022-07-29T03:50:43;22.90;65.20
45491;DHT22;31237;45.586;13.782;2022-07-29T03:53:09;22.90;65.20
45491;DHT22;31237;45.586;13.782;2022-07-29T03:55:53;22.90;65.20
45491;DHT22;31237;45.586;13.782;2022-07-29T03:58:23;22.90;65.10
45491;DHT22;31237;45.586;13.782;2022-07-29T04:00:54;22.90;65.00
45491;DHT22;31237;45.586;13.782;2022-07-29T04:03:20;23.00;65.70
45491;DHT22;31237;45.586;13.782;2022-07-29T04:05:58;23.00;64.90
45491;DHT22;31237;45.586;13.782;2022-07-29T04:08:24;23.00;64.80
45491;DHT22;31237;45.586;13.782;2022-07-29T04:10:50;23.00;64.80
45491;DHT22;31237;45.586;13.782;2022-07-29T04:13:18;23.10;64.80
45491;DHT22;31237;45.586;13.782;2022-07-29T04:15:43;23.10;64.70
45491;DHT22;31237;45.586;13.782;2022-07-29T04:18:09;23.10;64.60
45491;DHT22;31237;45.586;13.782;2022-07-29T04:20:35;23.10;64.50
45491;DHT22;31237;45.586;13.782;2022-07-29T04:23:00;23.20;64.50
45491;DHT22;31237;45.586;13.782;2022-07-29T04:25:26;23.20;64.40
45491;DHT22;31237;45.586;13.782;2022-07-29T04:27:52;23.20;64.30
45491;DHT22;31237;45.586;13.782;2022-07-29T04:31:24;23.30;64.20
45491;DHT22;31237;45.586;13.782;2022-07-29T08:42:11;30.80;49.40
45491;DHT22;31237;45.586;13.782;2022-07-29T08:44:36;30.90;49.50
45491;DHT22;31237;45.586;13.782;2022-07-29T08:47:03;31.00;48.80
45491;DHT22;31237;45.586;13.782;2022-07-29T08:49:30;31.10;48.30
45491;DHT22;31237;45.586;13.782;2022-07-29T08:51:57;31.10;48.60
45491;DHT22;31237;45.586;13.782;2022-07-29T08:54:23;31.20;48.70
45491;DHT22;31237;45.586;13.782;2022-07-29T08:56:51;31.30;48.80
45491;DHT22;31237;45.586;13.782;2022-07-29T08:59:19;31.50;48.50
45491;DHT22;31237;45.586;13.782;2022-07-29T09:01:46;31.70;47.30
45491;DHT22;31237;45.586;13.782;2022-07-29T09:04:14;31.70;46.40
45491;DHT22;31237;45.586;13.782;2022-07-29T09:06:46;31.80;45.80
45491;DHT22;31237;45.586;13.782;2022-07-29T09:09:12;31.80;46.40
45491;DHT22;31237;45.586;13.782;2022-07-29T09:11:40;31.80;46.80
45491;DHT22;31237;45.586;13.782;2022-07-29T09:14:06;31.90;46.80
45491;DHT22;31237;45.586;13.782;2022-07-29T09:16:52;32.00;46.40
45491;DHT22;31237;45.586;13.782;2022-07-29T09:19:21;32.00;46.70
45491;DHT22;31237;45.586;13.782;2022-07-29T09:21:51;32.00;46.80
45491;DHT22;31237;45.586;13.782;2022-07-29T09:24:45;32.00;46.50
45491;DHT22;31237;45.586;13.782;2022-07-29T09:27:24;32.10;46.60
45491;DHT22;31237;45.586;13.782;2022-07-29T09:29:59;32.30;47.10
45491;DHT22;31237;45.586;13.782;2022-07-29T09:32:25;32.30;47.00
45491;DHT22;31237;45.586;13.782;2022-07-29T09:37:40;32.30;46.90
45491;DHT22;31237;45.586;13.782;2022-07-29T09:40:41;32.30;47.30
45491;DHT22;31237;45.586;13.782;2022-07-29T09:43:20;32.30;47.90
45491;DHT22;31237;45.586;13.782;2022-07-29T09:45:47;32.30;48.10
45491;DHT22;31237;45.586;13.782;2022-07-29T09:48:18;32.30;48.10
45491;DHT22;31237;45.586;13.782;2022-07-29T09:50:45;32.30;48.40
45491;DHT22;31237;45.586;13.782;2022-07-29T09:53:13;32.40;47.90
45491;DHT22;31237;45.586;13.782;2022-07-29T09:55:54;32.50;47.00
45491;DHT22;31237;45.586;13.782;2022-07-29T09:58:21;32.60;45.60
45491;DHT22;31237;45.586;13.782;2022-07-29T10:00:49;32.70;44.80
45491;DHT22;31237;45.586;13.782;2022-07-29T10:03:16;32.70;44.40
45491;DHT22;31237;45.586;13.782;2022-07-29T10:05:43;32.80;42.70
45491;DHT22;31237;45.586;13.782;2022-07-29T10:08:09;32.80;42.30
45491;DHT22;31237;45.586;13.782;2022-07-29T10:10:40;32.80;42.00
45491;DHT22;31237;45.586;13.782;2022-07-29T10:13:10;32.70;41.40
45491;DHT22;31237;45.586;13.782;2022-07-29T10:15:38;32.60;41.20
45491;DHT22;31237;45.586;13.782;2022-07-29T10:18:07;32.60;40.90
45491;DHT22;31237;45.586;13.782;2022-07-29T10:20:34;32.50;41.20
45491;DHT22;31237;45.586;13.782;2022-07-29T10:22:59;32.40;41.00
45491;DHT22;31237;45.586;13.782;2022-07-29T10:25:26;32.40;41.20
45491;DHT22;31237;45.586;13.782;2022-07-29T10:27:53;32.30;41.20
45491;DHT22;31237;45.586;13.782;2022-07-29T10:30:20;32.30;41.40
45491;DHT22;31237;45.586;13.782;2022-07-29T10:36:07;32.20;41.20
45491;DHT22;31237;45.586;13.782;2022-07-29T10:38:51;32.20;41.30
45491;DHT22;31237;45.586;13.782;2022-07-29T10:41:43;32.20;41.20
45491;DHT22;31237;45.586;13.782;2022-07-29T10:44:13;32.20;41.20
45491;DHT22;31237;45.586;13.782;2022-07-29T10:46:40;32.20;41.50
45491;DHT22;31237;45.586;13.782;2022-07-29T10:49:16;32.30;41.00
45491;DHT22;31237;45.586;13.782;2022-07-29T10:57:27;32.40;41.40
45491;DHT22;31237;45.586;13.782;2022-07-29T11:05:17;32.50;41.30
45491;DHT22;31237;45.586;13.782;2022-07-29T11:10:35;32.60;40.30
45491;DHT22;31237;45.586;13.782;2022-07-29T11:13:00;32.50;40.90
45491;DHT22;31237;45.586;13.782;2022-07-29T11:15:26;32.50;41.20
45491;DHT22;31237;45.586;13.782;2022-07-29T11:20:44;32.60;41.40
45491;DHT22;31237;45.586;13.782;2022-07-29T11:23:36;32.70;41.50
45491;DHT22;31237;45.586;13.782;2022-07-29T11:26:18;32.70;41.70
45491;DHT22;31237;45.586;13.782;2022-07-29T11:29:04;32.70;41.70
45491;DHT22;31237;45.586;13.782;2022-07-29T11:31:32;32.60;41.50
45491;DHT22;31237;45.586;13.782;2022-07-29T11:34:33;32.50;42.00
45491;DHT22;31237;45.586;13.782;2022-07-29T11:39:36;32.40;41.80
45491;DHT22;31237;45.586;13.782;2022-07-29T11:47:28;32.20;42.30
45491;DHT22;31237;45.586;13.782;2022-07-29T11:49:59;32.10;42.40
45491;DHT22;31237;45.586;13.782;2022-07-29T11:52:33;32.10;42.20
45491;DHT22;31237;45.586;13.782;2022-07-29T11:55:02;32.10;42.60
45491;DHT22;31237;45.586;13.782;2022-07-29T11:57:28;32.10;42.90
45491;DHT22;31237;45.586;13.782;2022-07-29T11:59:55;32.10;42.90
45491;DHT22;31237;45.586;13.782;2022-07-29T12:02:23;32.20;42.80
45491;DHT22;31237;45.586;13.782;2022-07-29T12:04:54;32.20;42.40
45491;DHT22;31237;45.586;13.782;2022-07-29T12:07:34;32.10;42.20
45491;DHT22;31237;45.586;13.782;2022-07-29T12:10:00;32.00;42.30
45491;DHT22;31237;45.586;13.782;2022-07-29T12:12:26;32.00;42.70
45491;DHT22;31237;45.586;13.782;2022-07-29T12:14:51;31.90;42.60
45491;DHT22;31237;45.586;13.782;2022-07-29T12:17:28;31.90;42.70
45491;DHT22;31237;45.586;13.782;2022-07-29T12:19:55;31.80;42.70
45491;DHT22;31237;45.586;13.782;2022-07-29T12:22:31;31.80;42.80
45491;DHT22;31237;45.586;13.782;2022-07-29T12:25:02;31.80;43.60
45491;DHT22;31237;45.586;13.782;2022-07-29T12:27:28;31.80;43.70
45491;DHT22;31237;45.586;13.782;2022-07-29T12:30:04;31.80;43.30
45491;DHT22;31237;45.586;13.782;2022-07-29T12:35:09;31.90;43.70
45491;DHT22;31237;45.586;13.782;2022-07-29T12:37:36;31.90;43.10
45491;DHT22;31237;45.586;13.782;2022-07-29T12:40:04;31.80;42.60
45491;DHT22;31237;45.586;13.782;2022-07-29T12:42:30;31.80;42.30
45491;DHT22;31237;45.586;13.782;2022-07-29T12:44:55;31.70;42.20
45491;DHT22;31237;45.586;13.782;2022-07-29T12:47:22;31.60;42.80
45491;DHT22;31237;45.586;13.782;2022-07-29T12:49:50;31.60;42.60
45491;DHT22;31237;45.586;13.782;2022-07-29T12:52:32;31.60;43.10
45491;DHT22;31237;45.586;13.782;2022-07-29T12:54:59;31.60;42.80
45491;DHT22;31237;45.586;13.782;2022-07-29T12:57:27;31.60;43.00
45491;DHT22;31237;45.586;13.782;2022-07-29T13:00:11;31.50;43.00
45491;DHT22;31237;45.586;13.782;2022-07-29T13:02:38;31.50;43.10
45491;DHT22;31237;45.586;13.782;2022-07-29T13:05:06;31.30;42.40
45491;DHT22;31237;45.586;13.782;2022-07-29T13:07:32;31.30;43.10
45491;DHT22;31237;45.586;13.782;2022-07-29T13:10:20;31.30;43.70
45491;DHT22;31237;45.586;13.782;2022-07-29T13:15:27;31.30;43.60
45491;DHT22;31237;45.586;13.782;2022-07-29T13:17:53;31.20;43.30
45491;DHT22;31237;45.586;13.782;2022-07-29T13:20:23;31.20;43.40
45491;DHT22;31237;45.586;13.782;2022-07-29T13:22:48;31.20;43.80
45491;DHT22;31237;45.586;13.782;2022-07-29T13:25:14;31.20;44.00
45491;DHT22;31237;45.586;13.782;2022-07-29T13:27:40;31.30;43.90
45491;DHT22;31237;45.586;13.782;2022-07-29T13:30:08;31.30;43.50
45491;DHT22;31237;45.586;13.782;2022-07-29T13:32:35;31.30;43.60
45491;DHT22;31237;45.586;13.782;2022-07-29T13:35:04;31.30;43.40
45491;DHT22;31237;45.586;13.782;2022-07-29T13:37:31;31.30;43.40
45491;DHT22;31237;45.586;13.782;2022-07-29T13:39:59;31.30;43.90
45491;DHT22;31237;45.586;13.782;2022-07-29T13:42:26;31.30;43.80
45491;DHT22;31237;45.586;13.782;2022-07-29T13:44:52;31.30;43.30
45491;DHT22;31237;45.586;13.782;2022-07-29T13:47:21;31.30;43.30
45491;DHT22;31237;45.586;13.782;2022-07-29T13:49:48;31.20;43.20
45491;DHT22;31237;45.586;13.782;2022-07-29T13:52:14;31.20;43.60
45491;DHT22;31237;45.586;13.782;2022-07-29T13:54:41;31.20;43.80
45491;DHT22;31237;45.586;13.782;2022-07-29T13:57:07;31.30;43.70
45491;DHT22;31237;45.586;13.782;2022-07-29T13:59:32;31.30;43.40
45491;DHT22;31237;45.586;13.782;2022-07-29T14:01:58;31.30;43.70
45491;DHT22;31237;45.586;13.782;2022-07-29T14:04:25;31.30;43.70
45491;DHT22;31237;45.586;13.782;2022-07-29T14:06:51;31.30;44.40
45491;DHT22;31237;45.586;13.782;2022-07-29T14:09:17;31.30;43.50
45491;DHT22;31237;45.586;13.782;2022-07-29T14:11:43;31.30;43.50
45491;DHT22;31237;45.586;13.782;2022-07-29T14:14:09;31.20;43.40
45491;DHT22;31237;45.586;13.782;2022-07-29T14:16:35;31.20;43.30
45491;DHT22;31237;45.586;13.782;2022-07-29T14:19:02;31.20;43.50
45491;DHT22;31237;45.586;13.782;2022-07-29T14:21:27;31.20;43.40
45491;DHT22;31237;45.586;13.782;2022-07-29T14:23:53;31.10;43.20
45491;DHT22;31237;45.586;13.782;2022-07-29T14:26:20;31.10;43.50
45491;DHT22;31237;45.586;13.782;2022-07-29T14:28:47;31.10;43.30
45491;DHT22;31237;45.586;13.782;2022-07-29T14:31:13;31.20;43.30
45491;DHT22;31237;45.586;13.782;2022-07-29T14:33:39;31.20;43.40
45491;DHT22;31237;45.586;13.782;2022-07-29T14:36:05;31.20;43.70
45491;DHT22;31237;45.586;13.782;2022-07-29T14:38:30;31.20;43.90
45491;DHT22;31237;45.586;13.782;2022-07-29T14:40:56;31.20;44.70
45491;DHT22;31237;45.586;13.782;2022-07-29T14:43:22;31.20;44.10
45491;DHT22;31237;45.586;13.782;2022-07-29T14:45:48;31.20;44.10
45491;DHT22;31237;45.586;13.782;2022-07-29T14:48:14;31.30;43.70
45491;DHT22;31237;45.586;13.782;2022-07-29T14:50:39;31.30;43.10
45491;DHT22;31237;45.586;13.782;2022-07-29T14:53:05;31.30;42.70
45491;DHT22;31237;45.586;13.782;2022-07-29T14:55:31;31.20;42.20
45491;DHT22;31237;45.586;13.782;2022-07-29T14:57:57;31.20;42.10
45491;DHT22;31237;45.586;13.782;2022-07-29T15:00:24;31.20;43.10
45491;DHT22;31237;45.586;13.782;2022-07-29T15:02:50;31.20;42.50
45491;DHT22;31237;45.586;13.782;2022-07-29T15:05:16;31.20;42.60
45491;DHT22;31237;45.586;13.782;2022-07-29T15:07:41;31.20;42.80
45491;DHT22;31237;45.586;13.782;2022-07-29T15:10:07;31.20;42.90
45491;DHT22;31237;45.586;13.782;2022-07-29T15:12:33;31.20;43.00
45491;DHT22;31237;45.586;13.782;2022-07-29T15:14:59;31.20;43.50
45491;DHT22;31237;45.586;13.782;2022-07-29T15:17:25;31.20;43.60
45491;DHT22;31237;45.586;13.782;2022-07-29T15:19:50;31.20;43.90
45491;DHT22;31237;45.586;13.782;2022-07-29T15:22:16;31.20;44.20
45491;DHT22;31237;45.586;13.782;2022-07-29T15:24:42;31.20;44.40
45491;DHT22;31237;45.586;13.782;2022-07-29T15:27:08;31.20;44.60
45491;DHT22;31237;45.586;13.782;2022-07-29T15:29:44;31.20;44.90
45491;DHT22;31237;45.586;13.782;2022-07-29T15:32:11;31.20;45.10
45491;DHT22;31237;45.586;13.782;2022-07-29T15:34:37;31.20;45.10
45491;DHT22;31237;45.586;13.782;2022-07-29T15:37:04;31.20;45.00
45491;DHT22;31237;45.586;13.782;2022-07-29T15:39:30;31.20;44.20
45491;DHT22;31237;45.586;13.782;2022-07-29T15:41:56;31.20;44.00
45491;DHT22;31237;45.586;13.782;2022-07-29T15:44:22;31.20;44.10
45491;DHT22;31237;45.586;13.782;2022-07-29T15:46:48;31.10;44.50
45491;DHT22;31237;45.586;13.782;2022-07-29T15:49:31;31.00;44.60
45491;DHT22;31237;45.586;13.782;2022-07-29T15:52:01;31.00;44.50
45491;DHT22;31237;45.586;13.782;2022-07-29T15:54:28;30.90;44.40
45491;DHT22;31237;45.586;13.782;2022-07-29T15:56:55;30.90;44.60
45491;DHT22;31237;45.586;13.782;2022-07-29T15:59:21;30.80;46.20
45491;DHT22;31237;45.586;13.782;2022-07-29T16:01:47;30.70;46.50
45491;DHT22;31237;45.586;13.782;2022-07-29T16:04:13;30.60;46.90
45491;DHT22;31237;45.586;13.782;2022-07-29T16:06:39;30.60;47.50
45491;DHT22;31237;45.586;13.782;2022-07-29T16:09:05;30.50;48.40
45491;DHT22;31237;45.586;13.782;2022-07-29T16:11:30;30.40;48.20
45491;DHT22;31237;45.586;13.782;2022-07-29T16:13:57;30.20;48.10
45491;DHT22;31237;45.586;13.782;2022-07-29T16:16:22;30.10;48.10
45491;DHT22;31237;45.586;13.782;2022-07-29T16:18:48;30.10;48.40
45491;DHT22;31237;45.586;13.782;2022-07-29T16:21:14;30.00;48.40
45491;DHT22;31237;45.586;13.782;2022-07-29T16:23:40;30.00;48.60
45491;DHT22;31237;45.586;13.782;2022-07-29T16:26:06;29.90;48.80
45491;DHT22;31237;45.586;13.782;2022-07-29T16:28:32;29.80;48.90
45491;DHT22;31237;45.586;13.782;2022-07-29T16:30:58;29.80;49.30
45491;DHT22;31237;45.586;13.782;2022-07-29T16:33:24;29.70;49.60
45491;DHT22;31237;45.586;13.782;2022-07-29T16:35:50;29.60;49.90
45491;DHT22;31237;45.586;13.782;2022-07-29T16:38:16;29.60;50.20
45491;DHT22;31237;45.586;13.782;2022-07-29T16:40:41;29.60;50.40
45491;DHT22;31237;45.586;13.782;2022-07-29T16:43:07;29.60;50.50
45491;DHT22;31237;45.586;13.782;2022-07-29T16:45:34;29.50;50.70
45491;DHT22;31237;45.586;13.782;2022-07-29T16:48:00;29.50;51.10
45491;DHT22;31237;45.586;13.782;2022-07-29T16:50:27;29.50;51.30
45491;DHT22;31237;45.586;13.782;2022-07-29T16:52:54;29.50;51.70
45491;DHT22;31237;45.586;13.782;2022-07-29T16:55:20;29.40;52.30
45491;DHT22;31237;45.586;13.782;2022-07-29T16:57:45;29.40;52.90
45491;DHT22;31237;45.586;13.782;2022-07-29T17:00:12;29.30;53.40
45491;DHT22;31237;45.586;13.782;2022-07-29T17:02:38;29.30;54.10
45491;DHT22;31237;45.586;13.782;2022-07-29T17:05:07;29.20;54.70
45491;DHT22;31237;45.586;13.782;2022-07-29T17:07:33;29.20;55.20
45491;DHT22;31237;45.586;13.782;2022-07-29T17:09:59;29.10;55.60
45491;DHT22;31237;45.586;13.782;2022-07-29T17:12:26;29.10;56.00
45491;DHT22;31237;45.586;13.782;2022-07-29T17:14:51;29.00;56.40
45491;DHT22;31237;45.586;13.782;2022-07-29T17:17:17;29.00;56.80
45491;DHT22;31237;45.586;13.782;2022-07-29T17:19:43;28.90;57.10
45491;DHT22;31237;45.586;13.782;2022-07-29T17:22:08;28.90;57.40
45491;DHT22;31237;45.586;13.782;2022-07-29T17:24:34;28.80;57.60
45491;DHT22;31237;45.586;13.782;2022-07-29T17:27:00;28.80;57.80
45491;DHT22;31237;45.586;13.782;2022-07-29T17:29:26;28.70;58.00
45491;DHT22;31237;45.586;13.782;2022-07-29T17:31:52;28.70;58.40
45491;DHT22;31237;45.586;13.782;2022-07-29T17:34:18;28.60;58.60
45491;DHT22;31237;45.586;13.782;2022-07-29T17:36:44;28.60;58.90
45491;DHT22;31237;45.586;13.782;2022-07-29T17:39:09;28.50;59.00
45491;DHT22;31237;45.586;13.782;2022-07-29T17:41:36;28.50;59.30
45491;DHT22;31237;45.586;13.782;2022-07-29T17:44:03;28.40;59.50
45491;DHT22;31237;45.586;13.782;2022-07-29T17:46:28;28.40;59.70
45491;DHT22;31237;45.586;13.782;2022-07-29T17:48:55;28.30;59.90
45491;DHT22;31237;45.586;13.782;2022-07-29T17:51:22;28.20;60.00
45491;DHT22;31237;45.586;13.782;2022-07-29T17:53:49;28.20;60.20
45491;DHT22;31237;45.586;13.782;2022-07-29T17:56:15;28.10;60.30
45491;DHT22;31237;45.586;13.782;2022-07-29T17:58:40;28.00;60.50
45491;DHT22;31237;45.586;13.782;2022-07-29T18:01:07;28.00;61.40
45491;DHT22;31237;45.586;13.782;2022-07-29T18:03:33;27.90;61.00
45491;DHT22;31237;45.586;13.782;2022-07-29T18:05:58;27.90;61.20
45491;DHT22;31237;45.586;13.782;2022-07-29T18:08:24;27.80;61.40
45491;DHT22;31237;45.586;13.782;2022-07-29T18:10:50;27.80;61.60
45491;DHT22;31237;45.586;13.782;2022-07-29T18:13:16;27.70;61.60
45491;DHT22;31237;45.586;13.782;2022-07-29T18:15:43;27.70;61.60
45491;DHT22;31237;45.586;13.782;2022-07-29T18:18:13;27.60;61.50
45491;DHT22;31237;45.586;13.782;2022-07-29T18:20:40;27.60;61.50
45491;DHT22;31237;45.586;13.782;2022-07-29T18:23:05;27.50;61.40
45491;DHT22;31237;45.586;13.782;2022-07-29T18:25:31;27.50;61.30
45491;DHT22;31237;45.586;13.782;2022-07-29T18:27:58;27.40;61.10
45491;DHT22;31237;45.586;13.782;2022-07-29T18:30:24;27.40;61.10
45491;DHT22;31237;45.586;13.782;2022-07-29T18:32:50;27.30;61.00
45491;DHT22;31237;45.586;13.782;2022-07-29T18:35:16;27.30;61.00
45491;DHT22;31237;45.586;13.782;2022-07-29T18:37:42;27.30;61.00
45491;DHT22;31237;45.586;13.782;2022-07-29T18:40:09;27.20;61.00
45491;DHT22;31237;45.586;13.782;2022-07-29T18:42:36;27.20;61.10
45491;DHT22;31237;45.586;13.782;2022-07-29T18:45:08;27.10;61.20
45491;DHT22;31237;45.586;13.782;2022-07-29T18:47:34;27.10;61.30
45491;DHT22;31237;45.586;13.782;2022-07-29T18:50:04;27.10;61.50
45491;DHT22;31237;45.586;13.782;2022-07-29T18:52:30;27.00;61.70
45491;DHT22;31237;45.586;13.782;2022-07-29T18:54:56;27.00;61.80
45491;DHT22;31237;45.586;13.782;2022-07-29T18:57:22;26.90;61.90
45491;DHT22;31237;45.586;13.782;2022-07-29T18:59:48;26.90;62.20
45491;DHT22;31237;45.586;13.782;2022-07-29T19:02:15;26.80;62.20
45491;DHT22;31237;45.586;13.782;2022-07-29T19:04:41;26.80;62.40
45491;DHT22;31237;45.586;13.782;2022-07-29T19:07:07;26.80;62.60
45491;DHT22;31237;45.586;13.782;2022-07-29T19:09:33;26.80;62.70
45491;DHT22;31237;45.586;13.782;2022-07-29T19:11:59;26.70;62.80
45491;DHT22;31237;45.586;13.782;2022-07-29T19:14:25;26.70;62.90
45491;DHT22;31237;45.586;13.782;2022-07-29T19:16:51;26.70;63.00
45491;DHT22;31237;45.586;13.782;2022-07-29T19:19:17;26.60;63.00
45491;DHT22;31237;45.586;13.782;2022-07-29T19:21:42;26.60;63.20
45491;DHT22;31237;45.586;13.782;2022-07-29T19:24:08;26.60;63.30
45491;DHT22;31237;45.586;13.782;2022-07-29T19:26:35;26.60;64.10
45491;DHT22;31237;45.586;13.782;2022-07-29T19:29:02;26.50;63.50
45491;DHT22;31237;45.586;13.782;2022-07-29T19:31:28;26.60;63.70
45491;DHT22;31237;45.586;13.782;2022-07-29T19:33:53;26.50;63.70
45491;DHT22;31237;45.586;13.782;2022-07-29T19:36:19;26.50;63.90
45491;DHT22;31237;45.586;13.782;2022-07-29T19:38:45;26.50;64.00
45491;DHT22;31237;45.586;13.782;2022-07-29T19:41:10;26.40;64.00
45491;DHT22;31237;45.586;13.782;2022-07-29T19:43:37;26.50;64.20
45491;DHT22;31237;45.586;13.782;2022-07-29T19:46:03;26.40;64.30
45491;DHT22;31237;45.586;13.782;2022-07-29T19:48:28;26.50;64.50
45491;DHT22;31237;45.586;13.782;2022-07-29T19:50:54;26.40;64.50
45491;DHT22;31237;45.586;13.782;2022-07-29T19:53:20;26.40;64.70
45491;DHT22;31237;45.586;13.782;2022-07-29T19:55:46;26.40;64.80
45491;DHT22;31237;45.586;13.782;2022-07-29T19:58:12;26.40;65.00
45491;DHT22;31237;45.586;13.782;2022-07-29T20:00:37;26.40;65.10
45491;DHT22;31237;45.586;13.782;2022-07-29T20:03:03;26.40;65.20
45491;DHT22;31237;45.586;13.782;2022-07-29T20:05:30;26.40;65.30
45491;DHT22;31237;45.586;13.782;2022-07-29T20:07:56;26.40;65.30
45491;DHT22;31237;45.586;13.782;2022-07-29T20:10:21;26.40;65.20
45491;DHT22;31237;45.586;13.782;2022-07-29T20:12:47;26.40;65.10
45491;DHT22;31237;45.586;13.782;2022-07-29T20:15:13;26.40;65.20
45491;DHT22;31237;45.586;13.782;2022-07-29T20:17:40;26.40;65.30
45491;DHT22;31237;45.586;13.782;2022-07-29T20:20:07;26.40;65.50